KBFM/BFM METAR and TAF weather

Enter ICAO airport designator
Station Type Date Time Source
KBFM METAR 2019/12/08 18:53 UTC NOAA

KBFM 081853Z 10007KT 10SM OVC014 19/17 A3009 RMK AO2 RAB28E47 SLP188 P0000 T01940167


Station Type Date Time Source
KBFM Decoded METAR 2019/12/08 18:53 UTC NOAA

MOBILE DOWNTOWN AIRPORT, AL, United States (KBFM) 30-38N 88-04W 20M
Dec 08, 2019 - 01:53 PM EST / 2019.12.08 1853 UTC
Wind: from the E (100 degrees) at 8 MPH (7 KT):0
Visibility: 10 mile(s):0
Sky conditions: overcast
Precipitation last hour: A trace
Temperature: 66.9 F (19.4 C)
Dew Point: 62.1 F (16.7 C)
Relative Humidity: 84%
Pressure (altimeter): 30.09 in. Hg (1018 hPa)
ob: KBFM 081853Z 10007KT 10SM OVC014 19/17 A3009 RMK AO2 RAB28E47 SLP188 P0000 T01940167
cycle: 19

Station Type Date Time Source
KBFM TAF 2019/12/08 18:30 UTC NOAA

TAF KBFM 081727Z 0818/0918 09008KT P6SM OVC020
FM082200 13006KT P6SM VCSH BKN050
FM090000 15005KT 3SM BR SCT015 BKN040
FM090600 VRB04KT 1/4SM FG SCT010 BKN080
FM091200 24004KT 3SM BR BKN015
FM091500 22007KT P6SM BKN040

Example: see airport list